Time;durP1;ratioP1;P1;durP2;ratioP2;P2;SDS_P1;SDS_P2;PMS_P1;PMS_P2;Temp;Humidity;BMP_temperature;BMP_pressure;BME280_temperature;BME280_humidity;BME280_pressure;Samples;Min_cycle;Max_cycle;Signal;HPM_P1;HPM_P2
2023/12/21 00:01:36;;;;;;;5.27;2.13;;;3.00;99.90;;;;;;5041036;28;20259;-56
2023/12/21 00:04:03;;;;;;;2.50;2.17;;;3.00;99.90;;;;;;5040914;28;20457;-57
2023/12/21 00:06:29;;;;;;;5.63;2.10;;;3.00;99.90;;;;;;5038149;28;20886;-56
2023/12/21 00:08:54;;;;;;;5.50;2.20;;;3.00;99.90;;;;;;5032723;28;20569;-55
2023/12/21 00:11:20;;;;;;;4.30;2.07;;;3.00;99.90;;;;;;5042029;28;20435;-56
2023/12/21 00:13:46;;;;;;;4.73;2.50;;;3.00;99.90;;;;;;5037843;28;20588;-56
2023/12/21 00:16:12;;;;;;;3.50;2.00;;;3.00;99.90;;;;;;5040124;28;20191;-56
2023/12/21 00:18:38;;;;;;;4.20;2.50;;;3.00;99.90;;;;;;5038056;28;20184;-55
2023/12/21 00:21:04;;;;;;;4.20;2.30;;;2.90;99.90;;;;;;5038006;28;20496;-54
2023/12/21 00:23:29;;;;;;;6.63;3.03;;;3.00;99.90;;;;;;5036468;28;20590;-56
2023/12/21 00:25:55;;;;;;;6.07;2.30;;;2.90;99.90;;;;;;5032358;28;20442;-56
2023/12/21 00:28:21;;;;;;;7.00;2.20;;;2.90;99.90;;;;;;5035092;28;20203;-57
2023/12/21 00:30:46;;;;;;;4.03;2.20;;;2.90;99.90;;;;;;5034909;28;20331;-55
2023/12/21 00:33:12;;;;;;;2.30;2.10;;;3.00;99.90;;;;;;5040831;28;20203;-55
2023/12/21 00:35:37;;;;;;;4.50;3.37;;;2.90;99.90;;;;;;5043382;28;20203;-55
2023/12/21 00:38:03;;;;;;;4.10;1.93;;;2.90;99.90;;;;;;5040063;28;20176;-58
2023/12/21 00:40:29;;;;;;;7.40;1.83;;;2.90;99.90;;;;;;5034739;28;20186;-56
2023/12/21 00:42:55;;;;;;;3.33;1.90;;;2.90;99.90;;;;;;5035268;28;20190;-55
2023/12/21 00:45:20;;;;;;;14.73;6.77;;;3.00;99.90;;;;;;5035767;28;20769;-54
2023/12/21 00:47:46;;;;;;;3.37;2.47;;;3.00;99.90;;;;;;5035145;28;20183;-55
2023/12/21 00:50:11;;;;;;;6.40;4.13;;;3.00;99.90;;;;;;5035606;28;20177;-56
2023/12/21 00:52:37;;;;;;;2.50;1.90;;;3.00;99.90;;;;;;5036320;28;20641;-56
2023/12/21 00:55:03;;;;;;;1.90;1.80;;;3.00;99.90;;;;;;5041418;28;20206;-54
2023/12/21 00:57:29;;;;;;;2.40;2.00;;;3.00;99.90;;;;;;5035262;28;20174;-55
2023/12/21 00:59:54;;;;;;;2.90;1.93;;;3.00;99.90;;;;;;5031375;28;22270;-55
2023/12/21 01:02:20;;;;;;;2.20;1.80;;;3.00;99.90;;;;;;5038346;28;20178;-55
2023/12/21 01:04:45;;;;;;;1.60;1.50;;;3.00;99.90;;;;;;5031978;28;20203;-57
2023/12/21 01:07:11;;;;;;;2.90;1.93;;;3.00;99.90;;;;;;5036912;28;20195;-56
2023/12/21 01:09:38;;;;;;;2.23;1.60;;;2.90;99.90;;;;;;5037849;28;20231;-57
2023/12/21 01:12:07;;;;;;;5.90;2.10;;;2.90;99.90;;;;;;5031580;28;20179;-55
2023/12/21 01:14:33;;;;;;;2.70;2.13;;;2.90;99.90;;;;;;5034495;28;20560;-55
2023/12/21 01:16:59;;;;;;;2.13;1.80;;;2.90;99.90;;;;;;5038002;28;20518;-55
2023/12/21 01:19:24;;;;;;;3.90;1.80;;;2.90;99.90;;;;;;5041085;28;20178;-55
2023/12/21 01:21:50;;;;;;;2.13;2.03;;;2.90;99.90;;;;;;5038651;28;20517;-56
2023/12/21 01:24:15;;;;;;;1.50;1.40;;;2.80;99.90;;;;;;5036836;28;20175;-55
2023/12/21 01:26:42;;;;;;;2.57;1.60;;;2.80;99.90;;;;;;5033321;28;20246;-55
2023/12/21 01:29:07;;;;;;;5.17;1.80;;;2.80;99.90;;;;;;5032140;28;20685;-56
2023/12/21 01:31:33;;;;;;;1.87;1.60;;;2.80;99.90;;;;;;5031671;28;20423;-55
2023/12/21 01:33:59;;;;;;;2.83;2.20;;;2.80;99.90;;;;;;5036750;28;20175;-58
2023/12/21 01:36:26;;;;;;;4.80;1.90;;;2.70;99.90;;;;;;5036716;28;20191;-58
2023/12/21 01:38:52;;;;;;;1.77;1.67;;;2.70;99.90;;;;;;5032550;28;20955;-55
2023/12/21 01:41:17;;;;;;;2.83;2.63;;;2.70;99.90;;;;;;5040748;28;20425;-55
2023/12/21 01:43:43;;;;;;;2.33;1.90;;;2.70;99.90;;;;;;5039189;28;20179;-55
2023/12/21 01:46:09;;;;;;;2.60;2.10;;;2.70;99.90;;;;;;5035200;28;20540;-56
2023/12/21 01:48:36;;;;;;;3.47;1.57;;;2.70;99.90;;;;;;5034581;28;20568;-56
2023/12/21 01:51:04;;;;;;;1.93;1.80;;;2.70;99.90;;;;;;5031792;28;20483;-56
2023/12/21 01:53:31;;;;;;;1.70;1.60;;;2.60;99.90;;;;;;5036377;28;20432;-55
2023/12/21 01:55:59;;;;;;;1.87;1.77;;;2.70;99.90;;;;;;5034318;28;20454;-55
2023/12/21 01:58:24;;;;;;;1.80;1.70;;;2.70;99.90;;;;;;5026428;28;21881;-55
2023/12/21 02:00:50;;;;;;;1.80;1.70;;;2.70;99.90;;;;;;5041020;28;20445;-55
2023/12/21 02:03:16;;;;;;;1.83;1.73;;;2.70;99.90;;;;;;5040923;28;20294;-57
2023/12/21 02:05:42;;;;;;;2.43;1.80;;;2.70;99.90;;;;;;5031352;28;20276;-56
2023/12/21 02:08:08;;;;;;;1.50;1.40;;;2.70;99.90;;;;;;5031820;28;20545;-56
2023/12/21 02:10:35;;;;;;;4.33;2.50;;;2.70;99.90;;;;;;5033906;28;20214;-55
2023/12/21 02:13:00;;;;;;;1.53;1.43;;;2.70;99.90;;;;;;5039105;28;20176;-55
2023/12/21 02:15:26;;;;;;;2.37;2.17;;;2.70;99.90;;;;;;5037273;28;20480;-56
2023/12/21 02:17:53;;;;;;;1.60;1.50;;;2.70;99.90;;;;;;5031215;28;20269;-56
2023/12/21 02:20:19;;;;;;;2.50;1.73;;;2.70;99.90;;;;;;5035491;28;21562;-55
2023/12/21 02:22:48;;;;;;;6.33;1.60;;;2.80;99.90;;;;;;5035852;28;20440;-57
2023/12/21 02:25:14;;;;;;;3.07;2.07;;;2.80;99.90;;;;;;5039136;28;20460;-57
2023/12/21 02:27:40;;;;;;;1.97;1.60;;;2.80;99.90;;;;;;5033530;28;20944;-56
2023/12/21 02:30:06;;;;;;;1.70;1.60;;;2.80;99.90;;;;;;5038731;28;20418;-55
2023/12/21 02:32:32;;;;;;;2.50;1.90;;;2.80;99.90;;;;;;5033098;28;20690;-58
2023/12/21 02:34:58;;;;;;;1.70;1.60;;;2.80;99.90;;;;;;5039073;28;20441;-57
2023/12/21 02:37:23;;;;;;;2.77;2.47;;;2.80;99.90;;;;;;5041267;28;20470;-55
2023/12/21 02:39:49;;;;;;;2.20;2.00;;;2.90;99.90;;;;;;5036770;28;20573;-56
2023/12/21 02:42:15;;;;;;;1.80;1.70;;;2.90;99.90;;;;;;5029675;28;20191;-56
2023/12/21 02:44:40;;;;;;;2.30;2.10;;;2.90;99.90;;;;;;5031160;28;20190;-56
2023/12/21 02:47:06;;;;;;;1.87;1.77;;;2.90;99.90;;;;;;5030203;28;20196;-56
2023/12/21 02:49:31;;;;;;;2.03;1.93;;;2.90;99.90;;;;;;5030964;28;20206;-56
2023/12/21 02:51:57;;;;;;;2.37;2.10;;;2.90;99.90;;;;;;5035612;28;20178;-55
2023/12/21 02:54:23;;;;;;;3.57;1.90;;;2.90;99.90;;;;;;5029231;28;20198;-56
2023/12/21 02:56:48;;;;;;;3.17;2.13;;;2.90;99.90;;;;;;5029949;28;20718;-55
2023/12/21 02:59:14;;;;;;;3.30;1.90;;;2.90;99.90;;;;;;5030070;28;20182;-56
2023/12/21 03:01:41;;;;;;;3.63;2.20;;;2.90;99.90;;;;;;5036977;28;20180;-55
2023/12/21 03:04:07;;;;;;;2.30;2.00;;;2.90;99.90;;;;;;5029693;28;20191;-56
2023/12/21 03:06:33;;;;;;;2.77;2.20;;;2.90;99.90;;;;;;5039870;28;20436;-56
2023/12/21 03:08:58;;;;;;;3.10;2.20;;;2.90;99.90;;;;;;5035546;28;20256;-57
2023/12/21 03:11:25;;;;;;;3.07;2.00;;;2.90;99.90;;;;;;5047738;28;20665;-55
2023/12/21 03:13:50;;;;;;;2.03;1.93;;;2.90;99.90;;;;;;5037183;28;20736;-56
2023/12/21 03:16:18;;;;;;;3.33;1.93;;;2.90;99.90;;;;;;5034648;28;20432;-55
2023/12/21 03:18:45;;;;;;;3.53;2.10;;;2.90;99.90;;;;;;5035715;28;20183;-56
2023/12/21 03:21:10;;;;;;;4.20;2.17;;;2.90;99.90;;;;;;5036168;28;20430;-56
2023/12/21 03:23:36;;;;;;;2.93;2.20;;;2.90;99.90;;;;;;5035258;28;20487;-57
2023/12/21 03:26:01;;;;;;;3.23;1.70;;;2.90;99.90;;;;;;5034376;28;20204;-56
2023/12/21 03:28:27;;;;;;;2.10;2.00;;;2.90;99.90;;;;;;5032803;28;20203;-56
2023/12/21 03:30:53;;;;;;;1.83;1.73;;;2.90;99.90;;;;;;5036188;28;20546;-55
2023/12/21 03:33:18;;;;;;;1.57;1.47;;;2.90;99.90;;;;;;5033599;28;20175;-55
2023/12/21 03:35:44;;;;;;;2.63;1.80;;;2.90;99.90;;;;;;5039629;28;20203;-56
2023/12/21 03:38:09;;;;;;;3.00;2.00;;;2.90;99.90;;;;;;5041855;28;20175;-55
2023/12/21 03:40:35;;;;;;;1.97;1.77;;;3.00;99.90;;;;;;5044549;28;20182;-56
2023/12/21 03:43:01;;;;;;;3.47;1.93;;;3.00;99.90;;;;;;5036585;28;20198;-55
2023/12/21 03:45:26;;;;;;;1.90;1.80;;;3.00;99.90;;;;;;5039509;28;20623;-57
2023/12/21 03:47:52;;;;;;;2.20;1.67;;;3.00;99.90;;;;;;5041551;28;20176;-57
2023/12/21 03:50:17;;;;;;;2.10;1.90;;;3.00;99.90;;;;;;5038162;28;20179;-54
2023/12/21 03:52:43;;;;;;;2.20;1.93;;;3.00;99.90;;;;;;5039815;28;20178;-55
2023/12/21 03:55:09;;;;;;;1.70;1.60;;;3.00;99.90;;;;;;5040816;28;20262;-55
2023/12/21 03:57:34;;;;;;;1.90;1.80;;;3.00;99.90;;;;;;5037657;28;20183;-56
2023/12/21 04:00:01;;;;;;;2.10;1.90;;;3.00;99.90;;;;;;5039313;28;20307;-55
2023/12/21 04:02:26;;;;;;;2.03;1.87;;;3.00;99.90;;;;;;5036757;28;20176;-56
2023/12/21 04:04:52;;;;;;;4.80;2.40;;;3.00;99.90;;;;;;5043409;28;20429;-55
2023/12/21 04:07:18;;;;;;;4.93;2.20;;;3.00;99.90;;;;;;5033703;28;20221;-54
2023/12/21 04:09:43;;;;;;;2.30;2.00;;;3.00;99.90;;;;;;5035897;28;20600;-55
2023/12/21 04:12:09;;;;;;;1.60;1.50;;;3.00;99.90;;;;;;5037855;28;20207;-56
2023/12/21 04:14:34;;;;;;;3.33;1.80;;;3.00;99.90;;;;;;5046011;28;20198;-56
2023/12/21 04:17:00;;;;;;;2.57;2.00;;;3.00;99.90;;;;;;5029674;28;20188;-56
2023/12/21 04:19:26;;;;;;;2.93;2.00;;;3.00;99.90;;;;;;5036932;28;20182;-56
2023/12/21 04:21:51;;;;;;;1.73;1.63;;;3.00;99.90;;;;;;5036211;28;20174;-57
2023/12/21 04:24:17;;;;;;;4.53;2.63;;;3.00;99.90;;;;;;5037492;28;20434;-56
2023/12/21 04:26:43;;;;;;;2.70;1.53;;;3.00;99.90;;;;;;5039909;28;20257;-56
2023/12/21 04:29:09;;;;;;;1.80;1.70;;;3.00;99.90;;;;;;5036591;28;20541;-58
2023/12/21 04:31:34;;;;;;;1.73;1.63;;;3.00;99.90;;;;;;5034502;28;20724;-54
2023/12/21 04:34:00;;;;;;;2.10;1.90;;;3.00;99.90;;;;;;5034017;28;20183;-55
2023/12/21 04:36:27;;;;;;;1.50;1.40;;;3.00;99.90;;;;;;5039543;28;20191;-56
2023/12/21 04:38:54;;;;;;;1.93;1.50;;;3.00;99.90;;;;;;5039163;28;20184;-56
2023/12/21 04:41:19;;;;;;;1.70;1.60;;;3.00;99.90;;;;;;5034609;28;20418;-56
2023/12/21 04:43:45;;;;;;;2.40;1.60;;;3.00;99.90;;;;;;5036447;28;20434;-56
2023/12/21 04:46:10;;;;;;;1.50;1.40;;;3.10;99.90;;;;;;5044962;28;20213;-56
2023/12/21 04:48:37;;;;;;;2.80;1.60;;;3.10;99.90;;;;;;5043341;28;20818;-56
2023/12/21 04:51:02;;;;;;;1.77;1.67;;;3.10;99.90;;;;;;5037770;28;20168;-55
2023/12/21 04:53:28;;;;;;;2.30;2.10;;;3.10;99.90;;;;;;5032477;28;20491;-56
2023/12/21 04:55:54;;;;;;;2.70;1.97;;;3.10;99.90;;;;;;5034420;28;20190;-56
2023/12/21 04:58:19;;;;;;;1.73;1.63;;;3.10;99.90;;;;;;5038866;28;20229;-56
2023/12/21 05:00:50;;;;;;;1.70;1.60;;;3.10;99.90;;;;;;5035075;28;20236;-55
2023/12/21 05:03:17;;;;;;;2.43;1.60;;;3.10;99.90;;;;;;5035820;28;20176;-58
2023/12/21 05:05:43;;;;;;;5.10;1.87;;;3.10;99.90;;;;;;5030210;28;20466;-56
2023/12/21 05:08:09;;;;;;;2.27;2.07;;;3.10;99.90;;;;;;5030564;28;20595;-58
2023/12/21 05:10:34;;;;;;;1.60;1.50;;;3.20;99.90;;;;;;5031791;28;20189;-57
2023/12/21 05:13:00;;;;;;;1.57;1.43;;;3.20;99.90;;;;;;5027714;28;20191;-56
2023/12/21 05:15:25;;;;;;;1.70;1.60;;;3.20;99.90;;;;;;5033866;28;20199;-56
2023/12/21 05:17:51;;;;;;;1.70;1.60;;;3.20;99.90;;;;;;5040414;28;20171;-56
2023/12/21 05:20:16;;;;;;;2.63;2.00;;;3.30;99.90;;;;;;5044736;28;20188;-56
2023/12/21 05:22:42;;;;;;;2.77;1.57;;;3.30;99.90;;;;;;5035009;28;20187;-54
2023/12/21 05:25:08;;;;;;;4.40;1.70;;;3.40;99.90;;;;;;5030917;28;20199;-57
2023/12/21 05:27:33;;;;;;;2.67;1.57;;;3.40;99.90;;;;;;5025662;28;20413;-58
2023/12/21 05:29:59;;;;;;;3.60;1.73;;;3.40;99.90;;;;;;5034332;28;20258;-57
2023/12/21 05:32:25;;;;;;;1.87;1.77;;;3.40;99.90;;;;;;5034525;28;20198;-57
2023/12/21 05:34:50;;;;;;;1.60;1.50;;;3.40;99.90;;;;;;5042968;28;20187;-57
2023/12/21 05:37:16;;;;;;;1.43;1.23;;;3.40;99.90;;;;;;5036930;28;20170;-58
2023/12/21 05:39:47;;;;;;;1.63;1.50;;;3.40;99.90;;;;;;5027835;28;20184;-57
2023/12/21 05:42:13;;;;;;;1.10;1.10;;;3.40;99.90;;;;;;5033790;28;20179;-58
2023/12/21 05:44:39;;;;;;;1.60;1.50;;;3.30;99.90;;;;;;5030795;28;20460;-58
2023/12/21 05:47:05;;;;;;;2.63;1.50;;;3.40;99.90;;;;;;5030642;28;20450;-58
2023/12/21 05:49:30;;;;;;;3.53;1.90;;;3.40;99.90;;;;;;5034084;28;20200;-53
2023/12/21 05:51:56;;;;;;;2.97;1.70;;;3.30;99.90;;;;;;5034206;28;20209;-59
2023/12/21 05:54:22;;;;;;;2.60;1.53;;;3.30;99.90;;;;;;5030001;28;20649;-58
2023/12/21 05:56:47;;;;;;;2.30;1.83;;;3.30;99.90;;;;;;5035561;28;20230;-56
2023/12/21 05:59:13;;;;;;;1.43;1.33;;;3.30;99.90;;;;;;5031059;28;20809;-57
2023/12/21 06:01:41;;;;;;;1.87;1.77;;;3.30;99.90;;;;;;5029659;28;20180;-58
2023/12/21 06:04:06;;;;;;;1.73;1.53;;;3.30;99.90;;;;;;5042867;28;20187;-58
2023/12/21 06:06:32;;;;;;;1.70;1.60;;;3.30;99.90;;;;;;5041277;28;20495;-58
2023/12/21 06:08:58;;;;;;;1.50;1.40;;;3.30;99.90;;;;;;5038992;28;20261;-57
2023/12/21 06:11:23;;;;;;;3.43;1.87;;;3.30;99.90;;;;;;5037551;28;20302;-57
2023/12/21 06:13:49;;;;;;;2.23;1.50;;;3.30;99.90;;;;;;5031464;28;20176;-58
2023/12/21 06:16:14;;;;;;;1.70;1.60;;;3.30;99.90;;;;;;5036023;28;20198;-58
2023/12/21 06:18:41;;;;;;;1.70;1.60;;;3.20;99.90;;;;;;5040991;28;20606;-59
2023/12/21 06:21:06;;;;;;;1.67;1.57;;;3.30;99.90;;;;;;5038786;28;20664;-58
2023/12/21 06:23:32;;;;;;;2.63;1.83;;;3.20;99.90;;;;;;5037418;28;20429;-58
2023/12/21 06:25:58;;;;;;;1.80;1.70;;;3.30;99.90;;;;;;5034252;28;20254;-58
2023/12/21 06:28:23;;;;;;;1.47;1.37;;;3.20;99.90;;;;;;5040094;28;20210;-58
2023/12/21 06:30:49;;;;;;;1.50;1.40;;;3.30;99.90;;;;;;5041791;28;20212;-57
2023/12/21 06:33:14;;;;;;;1.47;1.37;;;3.30;99.90;;;;;;5036860;28;20176;-58
2023/12/21 06:35:40;;;;;;;1.87;1.70;;;3.20;99.90;;;;;;5028480;28;20199;-58
2023/12/21 06:38:06;;;;;;;1.50;1.40;;;3.30;99.90;;;;;;5040434;28;20199;-56
2023/12/21 06:40:32;;;;;;;1.60;1.50;;;3.30;99.90;;;;;;5044208;28;20623;-57
2023/12/21 06:42:58;;;;;;;1.40;1.30;;;3.30;99.90;;;;;;5032534;28;20513;-57
2023/12/21 06:45:23;;;;;;;1.53;1.43;;;3.30;99.90;;;;;;5037421;28;20225;-58
2023/12/21 06:47:49;;;;;;;1.70;1.60;;;3.30;99.90;;;;;;5037480;28;20229;-58
2023/12/21 06:50:15;;;;;;;3.20;1.40;;;3.30;99.90;;;;;;5041288;28;20180;-57
2023/12/21 06:52:40;;;;;;;1.80;1.70;;;3.30;99.90;;;;;;5046083;28;20187;-59
2023/12/21 06:55:08;;;;;;;3.50;1.70;;;3.30;99.90;;;;;;5042064;28;20626;-57
2023/12/21 06:57:34;;;;;;;1.77;1.50;;;3.40;99.90;;;;;;5036799;28;20176;-58
2023/12/21 06:59:59;;;;;;;1.43;1.23;;;3.40;99.90;;;;;;5033058;28;20434;-58
2023/12/21 07:02:25;;;;;;;1.57;1.47;;;3.40;99.90;;;;;;5039271;28;20424;-58
2023/12/21 07:04:51;;;;;;;2.83;1.60;;;3.40;99.90;;;;;;5040662;28;20339;-56
2023/12/21 07:07:16;;;;;;;3.73;2.10;;;3.40;99.90;;;;;;5042041;28;20240;-57
2023/12/21 07:09:42;;;;;;;1.50;1.40;;;3.40;99.90;;;;;;5039532;28;20685;-58
2023/12/21 07:12:08;;;;;;;1.30;1.20;;;3.40;99.90;;;;;;5043352;28;20418;-58
2023/12/21 07:14:33;;;;;;;1.30;1.20;;;3.40;99.90;;;;;;5044381;28;20194;-56
2023/12/21 07:16:59;;;;;;;1.20;1.20;;;3.50;99.90;;;;;;5040619;28;20252;-59
2023/12/21 07:19:24;;;;;;;1.43;1.30;;;3.50;99.90;;;;;;5038036;28;20265;-58
2023/12/21 07:21:50;;;;;;;1.90;1.10;;;3.50;99.90;;;;;;5039859;28;20271;-57
2023/12/21 07:24:16;;;;;;;1.60;1.50;;;3.50;99.90;;;;;;5044136;28;20179;-56
2023/12/21 07:26:41;;;;;;;6.00;1.50;;;3.50;99.90;;;;;;5045552;28;20248;-57
2023/12/21 07:29:07;;;;;;;6.43;4.40;;;3.60;99.90;;;;;;5035928;28;20192;-58
2023/12/21 07:31:32;;;;;;;3.13;1.67;;;3.60;99.90;;;;;;5039695;28;20228;-57
2023/12/21 07:33:59;;;;;;;1.37;1.27;;;3.60;99.90;;;;;;5038395;28;20178;-58
2023/12/21 07:36:25;;;;;;;2.60;1.77;;;3.60;99.90;;;;;;5040275;28;20241;-58
2023/12/21 07:38:50;;;;;;;3.73;2.03;;;3.60;99.90;;;;;;5034787;28;20437;-58
2023/12/21 07:41:16;;;;;;;1.80;1.30;;;3.70;99.90;;;;;;5037857;28;20282;-59
2023/12/21 07:43:41;;;;;;;1.33;1.20;;;3.70;99.90;;;;;;5039045;28;20190;-55
2023/12/21 07:46:09;;;;;;;0.90;0.90;;;3.70;99.90;;;;;;5037798;28;20222;-58
2023/12/21 07:48:34;;;;;;;1.10;1.10;;;3.70;99.90;;;;;;5042625;28;20298;-57
2023/12/21 07:51:00;;;;;;;1.33;1.00;;;3.80;99.90;;;;;;5034289;28;20532;-57
2023/12/21 07:53:25;;;;;;;0.93;0.93;;;3.80;99.90;;;;;;5034083;28;20190;-58
2023/12/21 07:55:51;;;;;;;1.20;1.20;;;3.80;99.90;;;;;;5038696;28;20221;-59
2023/12/21 07:58:17;;;;;;;0.97;0.97;;;3.80;99.90;;;;;;5045886;28;20176;-57
2023/12/21 08:00:42;;;;;;;1.50;0.90;;;3.80;99.90;;;;;;5033352;28;20771;-57
2023/12/21 08:03:08;;;;;;;1.10;1.00;;;3.90;99.90;;;;;;5043510;28;20179;-58
2023/12/21 08:05:34;;;;;;;1.13;1.00;;;3.90;99.90;;;;;;5041389;28;20195;-57
2023/12/21 08:07:59;;;;;;;1.00;1.00;;;3.90;99.90;;;;;;5044204;28;20191;-58
2023/12/21 08:10:25;;;;;;;1.00;1.00;;;3.90;99.90;;;;;;5044734;28;20179;-58
2023/12/21 08:12:50;;;;;;;1.03;1.03;;;4.00;99.90;;;;;;5038584;28;20179;-58
2023/12/21 08:15:16;;;;;;;1.00;1.00;;;4.00;99.90;;;;;;5033380;28;20222;-58
2023/12/21 08:17:43;;;;;;;0.97;0.97;;;4.00;99.90;;;;;;5036351;28;20184;-57
2023/12/21 08:20:12;;;;;;;1.10;1.10;;;4.00;99.90;;;;;;5038802;28;20184;-57
2023/12/21 08:22:38;;;;;;;1.60;1.50;;;4.10;99.90;;;;;;5045324;28;20494;-58
2023/12/21 08:25:03;;;;;;;2.73;1.90;;;4.10;99.90;;;;;;5032236;28;20524;-57
2023/12/21 08:27:29;;;;;;;1.30;1.20;;;4.10;99.90;;;;;;5036609;28;20645;-58
2023/12/21 08:29:55;;;;;;;1.20;1.10;;;4.10;99.90;;;;;;5035800;28;20258;-57
2023/12/21 08:32:20;;;;;;;0.90;0.90;;;4.10;99.90;;;;;;5043490;28;20178;-57
2023/12/21 08:34:46;;;;;;;1.10;1.10;;;4.10;99.90;;;;;;5043800;28;20183;-59
2023/12/21 08:37:14;;;;;;;1.40;1.30;;;4.10;99.90;;;;;;5035759;28;20674;-56
2023/12/21 08:39:40;;;;;;;1.37;1.20;;;4.10;99.90;;;;;;5037429;28;20198;-58
2023/12/21 08:42:09;;;;;;;1.57;1.47;;;4.20;99.90;;;;;;5043125;28;20406;-57
2023/12/21 08:44:35;;;;;;;1.50;1.40;;;4.20;99.90;;;;;;5043117;28;20183;-57
2023/12/21 08:47:01;;;;;;;1.40;1.30;;;4.20;99.90;;;;;;5036278;28;20544;-58
2023/12/21 08:49:27;;;;;;;1.40;1.30;;;4.20;99.90;;;;;;5039578;28;20545;-58
2023/12/21 08:51:53;;;;;;;1.47;1.30;;;4.20;99.90;;;;;;5036293;28;20183;-58
2023/12/21 08:54:19;;;;;;;2.10;1.60;;;4.30;99.90;;;;;;5042418;28;20179;-58
2023/12/21 08:56:45;;;;;;;2.10;1.33;;;4.30;99.90;;;;;;5040028;28;20469;-58
2023/12/21 08:59:10;;;;;;;1.70;1.60;;;4.30;99.90;;;;;;5035362;28;20183;-58
2023/12/21 09:01:37;;;;;;;2.10;1.33;;;4.30;99.90;;;;;;5042338;28;20179;-57
2023/12/21 09:04:04;;;;;;;1.60;1.50;;;4.30;99.90;;;;;;5038153;28;20186;-56
2023/12/21 09:06:31;;;;;;;1.73;1.20;;;4.40;99.90;;;;;;5044883;28;20433;-57
2023/12/21 09:08:57;;;;;;;1.67;1.30;;;4.40;99.90;;;;;;5041747;28;20464;-57
2023/12/21 09:11:23;;;;;;;3.10;1.10;;;4.40;99.90;;;;;;5039541;28;20466;-58
2023/12/21 09:13:48;;;;;;;1.97;1.37;;;4.40;99.90;;;;;;5037070;28;20465;-56
2023/12/21 09:16:17;;;;;;;1.00;1.00;;;4.40;99.90;;;;;;5043480;28;20206;-57
2023/12/21 09:18:46;;;;;;;1.10;1.00;;;4.50;99.90;;;;;;5037795;28;20171;-56
2023/12/21 09:21:12;;;;;;;1.70;0.93;;;4.50;99.90;;;;;;5033714;28;20524;-59
2023/12/21 09:23:39;;;;;;;1.07;1.00;;;4.50;99.90;;;;;;5036852;28;20473;-58
2023/12/21 09:26:10;;;;;;;1.00;1.00;;;4.50;99.90;;;;;;5039519;28;20203;-56
2023/12/21 09:28:36;;;;;;;7.03;0.90;;;4.60;99.90;;;;;;5045945;28;21026;-58
2023/12/21 09:31:03;;;;;;;1.40;1.30;;;4.60;99.90;;;;;;5033920;28;24305;-58
2023/12/21 09:33:32;;;;;;;0.83;0.80;;;4.60;99.90;;;;;;5030849;28;20430;-57
2023/12/21 09:35:58;;;;;;;1.00;1.00;;;4.70;99.90;;;;;;5038456;28;20450;-59
2023/12/21 09:38:24;;;;;;;1.20;1.10;;;4.70;99.90;;;;;;5043911;28;20826;-58
2023/12/21 09:40:50;;;;;;;2.30;1.20;;;4.70;99.90;;;;;;5044122;28;20421;-57
2023/12/21 09:43:21;;;;;;;1.50;1.40;;;4.80;99.90;;;;;;5036776;28;20191;-60
2023/12/21 09:45:51;;;;;;;1.00;0.90;;;4.80;99.90;;;;;;5039052;28;20500;-57
2023/12/21 09:48:18;;;;;;;1.30;1.20;;;4.80;99.90;;;;;;5039389;28;20418;-57
2023/12/21 09:50:45;;;;;;;1.17;1.00;;;4.90;99.90;;;;;;5034638;28;20521;-59
2023/12/21 09:53:15;;;;;;;1.13;1.03;;;4.90;99.90;;;;;;5036312;28;20438;-58
2023/12/21 09:55:46;;;;;;;1.47;1.10;;;4.90;99.90;;;;;;5032009;28;20990;-58
2023/12/21 09:58:12;;;;;;;1.13;1.13;;;5.00;99.90;;;;;;5040780;28;20441;-58
2023/12/21 10:00:39;;;;;;;0.90;0.90;;;5.00;99.90;;;;;;5039103;28;20474;-57
2023/12/21 10:03:05;;;;;;;0.90;0.90;;;5.10;99.90;;;;;;5040580;28;20411;-57
2023/12/21 10:05:31;;;;;;;0.93;0.93;;;5.10;99.90;;;;;;5033013;28;20446;-56
2023/12/21 10:07:58;;;;;;;1.00;1.00;;;5.20;99.90;;;;;;5031824;28;20438;-58
2023/12/21 10:10:24;;;;;;;2.13;0.90;;;5.20;99.90;;;;;;5043203;28;20224;-57
2023/12/21 10:12:50;;;;;;;1.43;1.10;;;5.20;99.90;;;;;;5036550;28;20425;-57
2023/12/21 10:15:18;;;;;;;1.10;1.00;;;5.30;99.90;;;;;;5041401;28;20447;-56
2023/12/21 10:17:44;;;;;;;1.50;1.40;;;5.30;99.90;;;;;;5028508;28;20583;-58
2023/12/21 10:20:13;;;;;;;1.50;1.40;;;5.30;99.90;;;;;;5031722;28;20438;-58
2023/12/21 10:22:40;;;;;;;2.00;1.30;;;5.40;99.90;;;;;;5040914;28;20476;-58
2023/12/21 10:25:07;;;;;;;3.80;1.70;;;5.40;99.90;;;;;;5040322;28;20430;-58
2023/12/21 10:27:34;;;;;;;1.77;1.67;;;5.40;99.90;;;;;;5037962;28;20454;-58
2023/12/21 10:29:59;;;;;;;1.80;1.60;;;5.40;99.90;;;;;;5039627;28;20464;-58
2023/12/21 10:32:25;;;;;;;1.50;1.40;;;5.50;99.90;;;;;;5032334;28;20422;-57
2023/12/21 10:34:53;;;;;;;1.53;1.43;;;5.50;99.90;;;;;;5024961;28;20168;-57
2023/12/21 10:37:20;;;;;;;1.23;1.13;;;5.50;99.90;;;;;;5034484;28;20188;-57
2023/12/21 10:39:46;;;;;;;1.10;1.10;;;5.60;99.90;;;;;;5030143;28;20510;-58
2023/12/21 10:42:15;;;;;;;2.40;1.47;;;5.60;99.90;;;;;;5037961;28;20979;-57
2023/12/21 10:44:50;;;;;;;1.30;1.20;;;5.60;99.90;;;;;;5042678;28;20415;-57
2023/12/21 10:47:17;;;;;;;1.80;1.30;;;5.60;99.90;;;;;;5035394;28;20458;-59
2023/12/21 10:49:43;;;;;;;1.40;1.30;;;5.60;99.90;;;;;;5037289;28;20466;-57
2023/12/21 10:52:13;;;;;;;1.10;1.10;;;5.70;99.90;;;;;;5036986;28;20492;-57
2023/12/21 10:54:42;;;;;;;1.30;1.20;;;5.70;99.90;;;;;;5036729;28;20431;-58
2023/12/21 10:57:09;;;;;;;1.07;1.07;;;5.70;99.90;;;;;;5042059;28;20459;-57
2023/12/21 10:59:35;;;;;;;1.10;1.00;;;5.80;99.90;;;;;;5035438;28;20430;-57
2023/12/21 11:02:02;;;;;;;1.73;1.20;;;5.80;99.90;;;;;;5030210;28;20876;-59
2023/12/21 11:04:29;;;;;;;1.40;1.20;;;5.80;99.90;;;;;;5039336;28;20457;-57
2023/12/21 11:06:55;;;;;;;1.30;1.20;;;5.80;99.90;;;;;;5043284;28;20472;-58
2023/12/21 11:09:22;;;;;;;1.47;1.37;;;5.80;99.90;;;;;;5041172;28;20453;-58
2023/12/21 11:11:48;;;;;;;1.53;1.30;;;5.80;99.90;;;;;;5044668;28;20413;-56
2023/12/21 11:14:15;;;;;;;1.40;1.30;;;5.80;99.90;;;;;;5041572;28;20407;-57
2023/12/21 11:16:51;;;;;;;1.50;1.40;;;5.80;99.90;;;;;;5047881;28;20438;-58
2023/12/21 11:19:28;;;;;;;2.00;1.60;;;5.80;99.90;;;;;;5042192;28;20421;-58
2023/12/21 11:21:55;;;;;;;4.50;1.40;;;5.80;99.90;;;;;;5041208;28;20468;-58
2023/12/21 11:24:22;;;;;;;3.60;1.60;;;5.80;99.90;;;;;;5039368;28;20413;-58
2023/12/21 11:26:49;;;;;;;1.53;1.30;;;5.80;99.90;;;;;;5040111;28;20439;-59
2023/12/21 11:29:26;;;;;;;4.53;1.50;;;5.70;99.90;;;;;;5032770;28;20476;-58
2023/12/21 11:31:53;;;;;;;1.27;1.17;;;5.80;99.90;;;;;;5040509;28;20444;-58
2023/12/21 11:34:21;;;;;;;2.83;1.93;;;5.70;99.90;;;;;;5037270;28;20520;-57
2023/12/21 11:36:50;;;;;;;1.47;1.37;;;5.70;99.90;;;;;;5034900;28;20476;-59
2023/12/21 11:39:19;;;;;;;1.30;1.20;;;5.80;99.90;;;;;;5036260;28;20470;-58
2023/12/21 11:41:59;;;;;;;1.40;1.30;;;5.80;99.90;;;;;;5045934;28;20500;-56
2023/12/21 11:44:37;;;;;;;1.20;1.13;;;5.80;99.90;;;;;;5040546;28;20432;-58
2023/12/21 11:47:07;;;;;;;2.30;1.70;;;5.80;99.90;;;;;;5036498;28;20465;-57
2023/12/21 11:49:33;;;;;;;1.97;1.40;;;5.80;99.90;;;;;;5044154;28;20453;-58
2023/12/21 11:51:59;;;;;;;2.23;1.50;;;5.80;99.90;;;;;;5037637;28;20445;-58
2023/12/21 11:54:25;;;;;;;1.20;1.10;;;5.80;99.90;;;;;;5036074;28;20175;-57
2023/12/21 11:56:55;;;;;;;5.60;2.77;;;5.80;99.90;;;;;;5034030;28;20469;-57
2023/12/21 11:59:27;;;;;;;1.53;1.30;;;5.80;99.90;;;;;;5039158;28;20179;-58
2023/12/21 12:01:53;;;;;;;0.97;0.97;;;5.80;99.90;;;;;;5035845;28;20979;-58
2023/12/21 12:04:19;;;;;;;1.00;1.00;;;5.80;99.90;;;;;;5040726;28;20441;-57
2023/12/21 12:06:46;;;;;;;1.70;1.33;;;5.80;99.90;;;;;;5039992;28;20454;-57
2023/12/21 12:09:12;;;;;;;1.30;1.20;;;5.80;99.90;;;;;;5040878;28;20290;-58
2023/12/21 12:11:39;;;;;;;1.57;1.47;;;5.90;99.90;;;;;;5038670;28;20569;-59
2023/12/21 12:14:05;;;;;;;1.37;1.27;;;5.90;99.90;;;;;;5042613;28;21034;-58
2023/12/21 12:16:34;;;;;;;1.63;1.37;;;5.90;99.90;;;;;;5042759;28;20473;-58
2023/12/21 12:19:00;;;;;;;1.97;1.80;;;5.90;99.90;;;;;;5033374;28;20442;-59
2023/12/21 12:21:25;;;;;;;1.20;1.20;;;6.00;99.90;;;;;;5039436;28;20454;-58
2023/12/21 12:23:51;;;;;;;1.00;1.00;;;6.00;99.90;;;;;;5039809;28;20191;-58
2023/12/21 12:26:18;;;;;;;1.20;1.10;;;6.00;99.90;;;;;;5044484;28;20200;-58
2023/12/21 12:28:46;;;;;;;1.73;1.53;;;6.00;99.90;;;;;;5036599;28;20665;-58
2023/12/21 12:31:12;;;;;;;1.97;1.47;;;6.10;99.90;;;;;;5033502;28;20419;-58
2023/12/21 12:33:39;;;;;;;2.13;1.57;;;6.10;99.90;;;;;;5042661;28;20441;-58
2023/12/21 12:36:05;;;;;;;3.13;1.90;;;6.00;99.90;;;;;;5038390;28;20453;-60
2023/12/21 12:38:31;;;;;;;1.80;1.40;;;6.00;99.90;;;;;;5043830;28;20418;-59
2023/12/21 12:40:58;;;;;;;1.20;1.10;;;6.10;99.90;;;;;;5034646;28;20434;-58
2023/12/21 12:43:25;;;;;;;1.20;1.10;;;6.10;99.90;;;;;;5036176;28;20270;-58
2023/12/21 12:45:52;;;;;;;1.40;1.30;;;6.10;99.90;;;;;;5041962;28;20979;-59
2023/12/21 12:48:19;;;;;;;2.30;1.20;;;6.10;99.90;;;;;;5045034;28;20417;-57
2023/12/21 12:50:46;;;;;;;1.20;1.10;;;6.00;99.90;;;;;;5038640;28;20446;-58
2023/12/21 12:53:12;;;;;;;1.70;1.30;;;6.00;99.90;;;;;;5041183;28;20426;-57